ELY5167 LLBG-LYTV
Flight info
| Callsign | ELY5167 |
|---|---|
| Flight time | N/A |
| Altitude | 34000 |
| Route | SUVAS N128 TEZAK/N0462F380 L324 SAFTA DCT MAROS DCT EVENO UM601 EXELA UN127 RIKSO DCT FSK UL608 DISOR DCT PEP DCT DOBAR DCT RODON L187 LASTI |
| Aircraft | B738/M-SDE2E3FGHIRWXY/LB1 |
Departure
| Time | 2026-05-07 04:27 |
|---|---|
| Airport | Ben Gurion International Airport (LLBG) |
Arrival
| Time | N/A |
|---|---|
| Airport | Tivat Airport (LYTV) |
| Time | Latitude | Longitude | Altitude | Speed | Heading |
|---|---|---|---|---|---|
| 2026-05-07 03:45 | 32.00617 | 34.87096 | 141 ft | 0 kts | 143° |
| 2026-05-07 04:11 | 32.00622 | 34.87091 | 141 ft | 2 kts | 145° |
| 2026-05-07 04:11 | 32.00635 | 34.87081 | 141 ft | 2 kts | 143° |
| 2026-05-07 04:12 | 32.00647 | 34.87070 | 141 ft | 2 kts | 143° |
| 2026-05-07 04:12 | 32.00659 | 34.87059 | 141 ft | 2 kts | 143° |
| 2026-05-07 04:12 | 32.00669 | 34.87047 | 141 ft | 2 kts | 108° |
| 2026-05-07 04:12 | 32.00670 | 34.87030 | 141 ft | 1 kts | 62° |
| 2026-05-07 04:13 | 32.00660 | 34.87021 | 141 ft | 2 kts | 23° |
| 2026-05-07 04:13 | 32.00648 | 34.87012 | 141 ft | 1 kts | 37° |
| 2026-05-07 04:13 | 32.00635 | 34.87002 | 141 ft | 2 kts | 34° |
| 2026-05-07 04:13 | 32.00624 | 34.86992 | 141 ft | 1 kts | 35° |
| 2026-05-07 04:14 | 32.00619 | 34.86989 | 141 ft | 0 kts | 34° |
| 2026-05-07 04:17 | 32.00620 | 34.86990 | 141 ft | 1 kts | 34° |
| 2026-05-07 04:17 | 32.00647 | 34.87010 | 141 ft | 8 kts | 33° |
| 2026-05-07 04:17 | 32.00723 | 34.87066 | 141 ft | 17 kts | 31° |
| 2026-05-07 04:18 | 32.00841 | 34.87153 | 141 ft | 22 kts | 45° |
| 2026-05-07 04:18 | 32.00790 | 34.87316 | 141 ft | 24 kts | 121° |
| 2026-05-07 04:18 | 32.00693 | 34.87502 | 141 ft | 28 kts | 121° |
| 2026-05-07 04:18 | 32.00586 | 34.87711 | 141 ft | 29 kts | 121° |
| 2026-05-07 04:19 | 32.00482 | 34.87912 | 141 ft | 27 kts | 122° |
| 2026-05-07 04:19 | 32.00374 | 34.88113 | 141 ft | 31 kts | 118° |
| 2026-05-07 04:19 | 32.00260 | 34.88337 | 141 ft | 31 kts | 120° |
| 2026-05-07 04:19 | 32.00147 | 34.88556 | 141 ft | 30 kts | 122° |
| 2026-05-07 04:20 | 32.00053 | 34.88737 | 141 ft | 5 kts | 122° |
| 2026-05-07 04:20 | 32.00052 | 34.88740 | 141 ft | 0 kts | 122° |
| 2026-05-07 04:21 | 31.99996 | 34.88848 | 141 ft | 18 kts | 121° |
| 2026-05-07 04:21 | 31.99950 | 34.88990 | 141 ft | 19 kts | 83° |
| 2026-05-07 04:21 | 31.99928 | 34.89136 | 141 ft | 19 kts | 124° |
| 2026-05-07 04:21 | 31.99851 | 34.89271 | 141 ft | 20 kts | 123° |
| 2026-05-07 04:22 | 31.99773 | 34.89414 | 140 ft | 21 kts | 120° |
| 2026-05-07 04:22 | 31.99715 | 34.89577 | 140 ft | 21 kts | 112° |
| 2026-05-07 04:22 | 31.99742 | 34.89729 | 140 ft | 20 kts | 51° |
| 2026-05-07 04:22 | 31.99853 | 34.89791 | 140 ft | 18 kts | 332° |
| 2026-05-07 04:23 | 31.99977 | 34.89715 | 140 ft | 22 kts | 333° |
| 2026-05-07 04:23 | 32.00129 | 34.89622 | 140 ft | 23 kts | 327° |
| 2026-05-07 04:23 | 32.00078 | 34.89527 | 141 ft | 10 kts | 198° |
| 2026-05-07 04:23 | 32.00072 | 34.89524 | 141 ft | 0 kts | 198° |
| 2026-05-07 04:24 | 32.00068 | 34.89523 | 141 ft | 2 kts | 198° |
| 2026-05-07 04:24 | 32.00024 | 34.89506 | 141 ft | 8 kts | 198° |
| 2026-05-07 04:24 | 31.99990 | 34.89460 | 141 ft | 8 kts | 274° |
| 2026-05-07 04:24 | 32.00013 | 34.89406 | 141 ft | 4 kts | 300° |
| 2026-05-07 04:25 | 32.00016 | 34.89400 | 141 ft | 0 kts | 300° |
| 2026-05-07 04:25 | 32.00022 | 34.89387 | 141 ft | 6 kts | 300° |
| 2026-05-07 04:26 | 32.00115 | 34.89207 | 141 ft | 55 kts | 301° |
| 2026-05-07 04:26 | 32.00421 | 34.88618 | 141 ft | 112 kts | 301° |
| 2026-05-07 04:26 | 32.00913 | 34.87657 | 141 ft | 160 kts | 302° |
| 2026-05-07 04:26 | 32.01528 | 34.86460 | 497 ft | 171 kts | 302° |
| 2026-05-07 04:27 | 32.02021 | 34.85197 | 1064 ft | 180 kts | 280° |
| 2026-05-07 04:27 | 32.01866 | 34.83689 | 1548 ft | 193 kts | 257° |
| 2026-05-07 04:27 | 32.01485 | 34.82125 | 1958 ft | 205 kts | 259° |
| 2026-05-07 04:27 | 32.01191 | 34.80430 | 2328 ft | 218 kts | 262° |
| 2026-05-07 04:28 | 32.00922 | 34.78622 | 2759 ft | 229 kts | 263° |
| 2026-05-07 04:28 | 32.00655 | 34.76785 | 3380 ft | 232 kts | 262° |
| 2026-05-07 04:28 | 32.00369 | 34.74938 | 4120 ft | 230 kts | 261° |
| 2026-05-07 04:28 | 32.00163 | 34.73041 | 4562 ft | 240 kts | 274° |
| 2026-05-07 04:29 | 32.00491 | 34.71113 | 5088 ft | 246 kts | 289° |
| 2026-05-07 04:29 | 32.01068 | 34.69144 | 5439 ft | 262 kts | 291° |
| 2026-05-07 04:29 | 32.01693 | 34.67080 | 5875 ft | 274 kts | 290° |
| 2026-05-07 04:29 | 32.02298 | 34.64955 | 6574 ft | 276 kts | 289° |
| 2026-05-07 04:30 | 32.02749 | 34.62775 | 7290 ft | 277 kts | 279° |
| 2026-05-07 04:30 | 32.02930 | 34.60516 | 7849 ft | 280 kts | 275° |
| 2026-05-07 04:30 | 32.03015 | 34.58212 | 7976 ft | 282 kts | 273° |
| 2026-05-07 04:30 | 32.03092 | 34.55913 | 7984 ft | 279 kts | 274° |
| 2026-05-07 04:31 | 32.03188 | 34.53640 | 7984 ft | 278 kts | 274° |
| 2026-05-07 04:31 | 32.03302 | 34.51352 | 8016 ft | 284 kts | 275° |
| 2026-05-07 04:31 | 32.03425 | 34.49030 | 8756 ft | 282 kts | 275° |
| 2026-05-07 04:31 | 32.03545 | 34.46752 | 9521 ft | 280 kts | 275° |
| 2026-05-07 04:32 | 32.03666 | 34.44468 | 10174 ft | 282 kts | 275° |
| 2026-05-07 04:32 | 32.03796 | 34.42128 | 10569 ft | 293 kts | 275° |
| 2026-05-07 04:32 | 32.03940 | 34.39673 | 10845 ft | 309 kts | 275° |
| 2026-05-07 04:32 | 32.04092 | 34.37097 | 11165 ft | 323 kts | 275° |
| 2026-05-07 04:33 | 32.04247 | 34.34409 | 11458 ft | 337 kts | 274° |
| 2026-05-07 04:33 | 32.04408 | 34.31600 | 11704 ft | 352 kts | 275° |
| 2026-05-07 04:33 | 32.04574 | 34.28665 | 11919 ft | 367 kts | 275° |
| 2026-05-07 04:33 | 32.04760 | 34.25625 | 12199 ft | 379 kts | 276° |
| 2026-05-07 04:34 | 32.05223 | 34.22577 | 12774 ft | 381 kts | 286° |
| 2026-05-07 04:34 | 32.06269 | 34.19733 | 13462 ft | 380 kts | 297° |
| 2026-05-07 04:34 | 32.07606 | 34.17036 | 14019 ft | 384 kts | 301° |
| 2026-05-07 04:34 | 32.09037 | 34.14381 | 14644 ft | 387 kts | 302° |
| 2026-05-07 04:35 | 32.10488 | 34.11716 | 15287 ft | 388 kts | 301° |
| 2026-05-07 04:35 | 32.11931 | 34.09020 | 15883 ft | 392 kts | 301° |
| 2026-05-07 04:35 | 32.13371 | 34.06277 | 16470 ft | 395 kts | 300° |
| 2026-05-07 04:35 | 32.14803 | 34.03502 | 17048 ft | 397 kts | 300° |
| 2026-05-07 04:36 | 32.16229 | 34.00709 | 17613 ft | 400 kts | 300° |
| 2026-05-07 04:36 | 32.17681 | 33.97904 | 18136 ft | 404 kts | 301° |
| 2026-05-07 04:36 | 32.19251 | 33.95146 | 18686 ft | 407 kts | 303° |
| 2026-05-07 04:36 | 32.20906 | 33.92420 | 19178 ft | 411 kts | 304° |
| 2026-05-07 04:37 | 32.22595 | 33.89694 | 19726 ft | 414 kts | 305° |
| 2026-05-07 04:37 | 32.24295 | 33.86943 | 20226 ft | 417 kts | 305° |
| 2026-05-07 04:37 | 32.26004 | 33.84163 | 20708 ft | 421 kts | 304° |
| 2026-05-07 04:37 | 32.27718 | 33.81353 | 21226 ft | 423 kts | 304° |
| 2026-05-07 04:38 | 32.29439 | 33.78517 | 21716 ft | 426 kts | 304° |
| 2026-05-07 04:38 | 32.31167 | 33.75659 | 22182 ft | 429 kts | 304° |
| 2026-05-07 04:38 | 32.32901 | 33.72780 | 22643 ft | 432 kts | 304° |
| 2026-05-07 04:38 | 32.34647 | 33.69877 | 23111 ft | 435 kts | 304° |
| 2026-05-07 04:39 | 32.36395 | 33.66963 | 23577 ft | 437 kts | 304° |
| 2026-05-07 04:39 | 32.38156 | 33.64024 | 24010 ft | 440 kts | 304° |
| 2026-05-07 04:39 | 32.39928 | 33.61064 | 24480 ft | 442 kts | 304° |
| 2026-05-07 04:39 | 32.41711 | 33.58083 | 24865 ft | 446 kts | 304° |
| 2026-05-07 04:40 | 32.43504 | 33.55082 | 25306 ft | 448 kts | 304° |
| 2026-05-07 04:40 | 32.45305 | 33.52065 | 25719 ft | 451 kts | 304° |
| 2026-05-07 04:40 | 32.47117 | 33.49028 | 26122 ft | 454 kts | 304° |
| 2026-05-07 04:40 | 32.48933 | 33.45981 | 26720 ft | 452 kts | 304° |
| 2026-05-07 04:41 | 32.50730 | 33.42965 | 27418 ft | 447 kts | 304° |
| 2026-05-07 04:41 | 32.52515 | 33.39965 | 27927 ft | 446 kts | 304° |
| 2026-05-07 04:41 | 32.54299 | 33.36965 | 28449 ft | 445 kts | 304° |
| 2026-05-07 04:41 | 32.56077 | 33.33971 | 29011 ft | 443 kts | 304° |
| 2026-05-07 04:42 | 32.57836 | 33.31009 | 29608 ft | 439 kts | 304° |
| 2026-05-07 04:42 | 32.59590 | 33.28050 | 30034 ft | 440 kts | 304° |
| 2026-05-07 04:42 | 32.61342 | 33.25093 | 30499 ft | 439 kts | 304° |
| 2026-05-07 04:42 | 32.63092 | 33.22138 | 30924 ft | 438 kts | 304° |
| 2026-05-07 04:43 | 32.64834 | 33.19193 | 31414 ft | 436 kts | 304° |
| 2026-05-07 04:43 | 32.66571 | 33.16256 | 31801 ft | 436 kts | 303° |
| 2026-05-07 04:43 | 32.68311 | 33.13309 | 32189 ft | 435 kts | 304° |
| 2026-05-07 04:43 | 32.70044 | 33.10374 | 32633 ft | 433 kts | 304° |
| 2026-05-07 04:44 | 32.71778 | 33.07435 | 33019 ft | 433 kts | 303° |
| 2026-05-07 04:44 | 32.73500 | 33.04512 | 33384 ft | 432 kts | 303° |
| 2026-05-07 04:44 | 32.75219 | 33.01592 | 33797 ft | 431 kts | 304° |
| 2026-05-07 04:44 | 32.76934 | 32.98677 | 34071 ft | 431 kts | 304° |
| 2026-05-07 04:45 | 32.80389 | 32.92797 | 34090 ft | 429 kts | 303° |
| 2026-05-07 04:45 | 32.83794 | 32.86995 | 34092 ft | 429 kts | 303° |
| 2026-05-07 04:46 | 32.87209 | 32.81168 | 34095 ft | 429 kts | 303° |
| 2026-05-07 04:46 | 32.90617 | 32.75343 | 34095 ft | 429 kts | 303° |
| 2026-05-07 04:47 | 32.94021 | 32.69514 | 34097 ft | 430 kts | 303° |
| 2026-05-07 04:47 | 32.97421 | 32.63684 | 34105 ft | 429 kts | 304° |
| 2026-05-07 04:48 | 33.00806 | 32.57870 | 34109 ft | 427 kts | 303° |
| 2026-05-07 04:48 | 33.04189 | 32.52052 | 34105 ft | 428 kts | 303° |
| 2026-05-07 04:49 | 33.07567 | 32.46233 | 34103 ft | 427 kts | 303° |
| 2026-05-07 04:49 | 33.10944 | 32.40406 | 34107 ft | 427 kts | 303° |
| 2026-05-07 04:50 | 33.14310 | 32.34589 | 34111 ft | 427 kts | 303° |
| 2026-05-07 04:50 | 33.17680 | 32.28756 | 34111 ft | 426 kts | 303° |
| 2026-05-07 04:51 | 33.21039 | 32.22933 | 34111 ft | 427 kts | 303° |
| 2026-05-07 04:51 | 33.24396 | 32.17105 | 34111 ft | 426 kts | 303° |
| 2026-05-07 04:52 | 33.27749 | 32.11275 | 34111 ft | 427 kts | 303° |
| 2026-05-07 04:52 | 33.31103 | 32.05433 | 34111 ft | 426 kts | 303° |
| 2026-05-07 04:53 | 33.34442 | 31.99608 | 34111 ft | 425 kts | 303° |
| 2026-05-07 04:53 | 33.37775 | 31.93783 | 34112 ft | 426 kts | 303° |
| 2026-05-07 04:54 | 33.41111 | 31.87944 | 34113 ft | 426 kts | 303° |
| 2026-05-07 04:54 | 33.44640 | 31.82268 | 34111 ft | 427 kts | 311° |
| 2026-05-07 04:55 | 33.49399 | 31.78010 | 34110 ft | 433 kts | 331° |
| 2026-05-07 04:55 | 33.55034 | 31.75402 | 34111 ft | 435 kts | 339° |
| 2026-05-07 04:56 | 33.60827 | 31.73287 | 34113 ft | 435 kts | 340° |
| 2026-05-07 04:56 | 33.66637 | 31.71244 | 34110 ft | 436 kts | 340° |
| 2026-05-07 04:57 | 33.72471 | 31.69170 | 34109 ft | 436 kts | 340° |
| 2026-05-07 04:57 | 33.78196 | 31.66823 | 34110 ft | 433 kts | 333° |
| 2026-05-07 04:58 | 33.83335 | 31.63194 | 34113 ft | 428 kts | 322° |
| 2026-05-07 04:58 | 33.88047 | 31.58859 | 34111 ft | 426 kts | 320° |
| 2026-05-07 04:59 | 33.92674 | 31.54397 | 34110 ft | 426 kts | 319° |
| 2026-05-07 04:59 | 33.97301 | 31.49949 | 34111 ft | 427 kts | 319° |
| 2026-05-07 05:00 | 34.01951 | 31.45511 | 34110 ft | 426 kts | 320° |
| 2026-05-07 05:00 | 34.06611 | 31.41079 | 34112 ft | 427 kts | 320° |
| 2026-05-07 05:01 | 34.11267 | 31.36655 | 34112 ft | 426 kts | 320° |
| 2026-05-07 05:01 | 34.15915 | 31.32233 | 34112 ft | 426 kts | 319° |
| 2026-05-07 05:02 | 34.20567 | 31.27801 | 34112 ft | 426 kts | 320° |
| 2026-05-07 05:02 | 34.25219 | 31.23363 | 34112 ft | 426 kts | 320° |
| 2026-05-07 05:03 | 34.29872 | 31.18919 | 34112 ft | 426 kts | 320° |
| 2026-05-07 05:03 | 34.34512 | 31.14480 | 34112 ft | 426 kts | 319° |
| 2026-05-07 05:04 | 34.39148 | 31.10039 | 34112 ft | 426 kts | 319° |
| 2026-05-07 05:04 | 34.43785 | 31.05590 | 34112 ft | 425 kts | 320° |
| 2026-05-07 05:05 | 34.48420 | 31.01135 | 34112 ft | 426 kts | 320° |
| 2026-05-07 05:05 | 34.53063 | 30.96667 | 34112 ft | 426 kts | 320° |
| 2026-05-07 05:06 | 34.57707 | 30.92192 | 34112 ft | 426 kts | 320° |
| 2026-05-07 05:06 | 34.62420 | 30.87837 | 34111 ft | 427 kts | 323° |
| 2026-05-07 05:07 | 34.67465 | 30.84022 | 34111 ft | 428 kts | 327° |
| 2026-05-07 05:07 | 34.72621 | 30.80399 | 34112 ft | 428 kts | 328° |
| 2026-05-07 05:08 | 34.77772 | 30.76782 | 34110 ft | 427 kts | 328° |
| 2026-05-07 05:08 | 34.82910 | 30.73137 | 34112 ft | 428 kts | 327° |
| 2026-05-07 05:09 | 34.88043 | 30.69467 | 34110 ft | 428 kts | 327° |
| 2026-05-07 05:09 | 34.93160 | 30.65794 | 34111 ft | 427 kts | 327° |
| 2026-05-07 05:10 | 34.98278 | 30.62109 | 34111 ft | 427 kts | 327° |
| 2026-05-07 05:10 | 35.03383 | 30.58427 | 34112 ft | 426 kts | 328° |
| 2026-05-07 05:11 | 35.08483 | 30.54742 | 34112 ft | 426 kts | 328° |
| 2026-05-07 05:11 | 35.13591 | 30.51045 | 34112 ft | 427 kts | 328° |
| 2026-05-07 05:12 | 35.18693 | 30.47348 | 34111 ft | 427 kts | 327° |
| 2026-05-07 05:12 | 35.23790 | 30.43649 | 34111 ft | 426 kts | 328° |
| 2026-05-07 05:13 | 35.28872 | 30.39957 | 34115 ft | 425 kts | 328° |
| 2026-05-07 05:13 | 35.33929 | 30.36276 | 34113 ft | 424 kts | 328° |
| 2026-05-07 05:14 | 35.39011 | 30.32573 | 34110 ft | 424 kts | 327° |
| 2026-05-07 05:14 | 35.44086 | 30.28868 | 34112 ft | 425 kts | 327° |
| 2026-05-07 05:15 | 35.49155 | 30.25162 | 34113 ft | 424 kts | 327° |
| 2026-05-07 05:15 | 35.54210 | 30.21461 | 34111 ft | 424 kts | 327° |
| 2026-05-07 05:16 | 35.59261 | 30.17756 | 34112 ft | 424 kts | 327° |
| 2026-05-07 05:16 | 35.64306 | 30.14051 | 34117 ft | 423 kts | 327° |
| 2026-05-07 05:17 | 35.69353 | 30.10340 | 34111 ft | 424 kts | 327° |
| 2026-05-07 05:17 | 35.74407 | 30.06618 | 34113 ft | 423 kts | 327° |
| 2026-05-07 05:18 | 35.79334 | 30.02702 | 34107 ft | 422 kts | 320° |
| 2026-05-07 05:18 | 35.83265 | 29.97397 | 34113 ft | 422 kts | 303° |
| 2026-05-07 05:19 | 35.85893 | 29.90964 | 34112 ft | 422 kts | 293° |
| 2026-05-07 05:19 | 35.87838 | 29.84128 | 34108 ft | 424 kts | 289° |
| 2026-05-07 05:20 | 35.89630 | 29.77227 | 34111 ft | 424 kts | 289° |
| 2026-05-07 05:20 | 35.91436 | 29.70317 | 34111 ft | 426 kts | 290° |
| 2026-05-07 05:21 | 35.94243 | 29.59963 | 34108 ft | 424 kts | 292° |
| 2026-05-07 05:22 | 35.97107 | 29.53694 | 34115 ft | 422 kts | 310° |
| 2026-05-07 05:22 | 36.01347 | 29.48720 | 34113 ft | 422 kts | 319° |
| 2026-05-07 05:23 | 36.05901 | 29.44130 | 34119 ft | 424 kts | 321° |
| 2026-05-07 05:23 | 36.10476 | 29.39587 | 34123 ft | 423 kts | 320° |
| 2026-05-07 05:24 | 36.15035 | 29.35016 | 34125 ft | 423 kts | 320° |
| 2026-05-07 05:24 | 36.19581 | 29.30410 | 34122 ft | 423 kts | 319° |
| 2026-05-07 05:25 | 36.24071 | 29.25741 | 34118 ft | 422 kts | 319° |
| 2026-05-07 05:25 | 36.28525 | 29.21052 | 34118 ft | 423 kts | 319° |
| 2026-05-07 05:26 | 36.32993 | 29.16341 | 34124 ft | 423 kts | 319° |
| 2026-05-07 05:26 | 36.37453 | 29.11638 | 34128 ft | 423 kts | 319° |
| 2026-05-07 05:27 | 36.41923 | 29.06923 | 34128 ft | 424 kts | 319° |
| 2026-05-07 05:27 | 36.46404 | 29.02191 | 34124 ft | 423 kts | 319° |
| 2026-05-07 05:28 | 36.50861 | 28.97479 | 34125 ft | 421 kts | 319° |
| 2026-05-07 05:28 | 36.55317 | 28.92758 | 34123 ft | 423 kts | 319° |
| 2026-05-07 05:29 | 36.59768 | 28.88036 | 34122 ft | 422 kts | 319° |
| 2026-05-07 05:29 | 36.64218 | 28.83308 | 34122 ft | 422 kts | 319° |
| 2026-05-07 05:30 | 36.68666 | 28.78575 | 34127 ft | 423 kts | 319° |
| 2026-05-07 05:30 | 36.73121 | 28.73842 | 34119 ft | 421 kts | 319° |
| 2026-05-07 05:31 | 36.77576 | 28.69122 | 34126 ft | 421 kts | 319° |
| 2026-05-07 05:31 | 36.82016 | 28.64412 | 34126 ft | 422 kts | 319° |
| 2026-05-07 05:32 | 36.86478 | 28.59667 | 34126 ft | 423 kts | 319° |
| 2026-05-07 05:32 | 36.90936 | 28.54918 | 34128 ft | 423 kts | 319° |
| 2026-05-07 05:33 | 36.95391 | 28.50165 | 34133 ft | 423 kts | 319° |
| 2026-05-07 05:33 | 36.99841 | 28.45408 | 34122 ft | 422 kts | 319° |
| 2026-05-07 05:34 | 37.04284 | 28.40652 | 34129 ft | 423 kts | 319° |
| 2026-05-07 05:34 | 37.08731 | 28.35881 | 34135 ft | 423 kts | 319° |
| 2026-05-07 05:35 | 37.13177 | 28.31073 | 34135 ft | 424 kts | 318° |
| 2026-05-07 05:35 | 37.17612 | 28.26257 | 34136 ft | 424 kts | 318° |
| 2026-05-07 05:36 | 37.22067 | 28.21448 | 34140 ft | 423 kts | 318° |
| 2026-05-07 05:36 | 37.26516 | 28.16650 | 34142 ft | 425 kts | 318° |
| 2026-05-07 05:37 | 37.30979 | 28.11830 | 34144 ft | 425 kts | 318° |
| 2026-05-07 05:37 | 37.35455 | 28.06985 | 34145 ft | 426 kts | 318° |
| 2026-05-07 05:38 | 37.39913 | 28.02152 | 34147 ft | 425 kts | 318° |
| 2026-05-07 05:38 | 37.44358 | 27.97324 | 34143 ft | 425 kts | 318° |
| 2026-05-07 05:39 | 37.48804 | 27.92488 | 34136 ft | 424 kts | 319° |
| 2026-05-07 05:39 | 37.53241 | 27.87653 | 34135 ft | 424 kts | 318° |
| 2026-05-07 05:40 | 37.57683 | 27.82802 | 34128 ft | 424 kts | 319° |
| 2026-05-07 05:40 | 37.62127 | 27.77944 | 34127 ft | 425 kts | 319° |
| 2026-05-07 05:41 | 37.66566 | 27.73082 | 34124 ft | 424 kts | 319° |
| 2026-05-07 05:41 | 37.71011 | 27.68206 | 34124 ft | 425 kts | 319° |
| 2026-05-07 05:42 | 37.75449 | 27.63329 | 34122 ft | 423 kts | 319° |
| 2026-05-07 05:42 | 37.79865 | 27.58468 | 34124 ft | 423 kts | 319° |
| 2026-05-07 05:43 | 37.84282 | 27.53596 | 34127 ft | 422 kts | 319° |
| 2026-05-07 05:43 | 37.88694 | 27.48726 | 34130 ft | 423 kts | 319° |
| 2026-05-07 05:44 | 37.93106 | 27.43846 | 34128 ft | 422 kts | 319° |
| 2026-05-07 05:44 | 37.97505 | 27.38972 | 34128 ft | 421 kts | 319° |
| 2026-05-07 05:45 | 38.01900 | 27.34094 | 34127 ft | 421 kts | 319° |
| 2026-05-07 05:45 | 38.06297 | 27.29208 | 34127 ft | 421 kts | 319° |
| 2026-05-07 05:46 | 38.10702 | 27.24301 | 34127 ft | 419 kts | 319° |
| 2026-05-07 05:46 | 38.15090 | 27.19406 | 34127 ft | 420 kts | 319° |
| 2026-05-07 05:47 | 38.19463 | 27.14520 | 34125 ft | 420 kts | 319° |
| 2026-05-07 05:47 | 38.23860 | 27.09602 | 34126 ft | 420 kts | 319° |
| 2026-05-07 05:48 | 38.28220 | 27.04715 | 34124 ft | 419 kts | 319° |
| 2026-05-07 05:48 | 38.32583 | 26.99818 | 34125 ft | 419 kts | 319° |
| 2026-05-07 05:49 | 38.36971 | 26.94955 | 34124 ft | 419 kts | 320° |
| 2026-05-07 05:49 | 38.41391 | 26.90091 | 34120 ft | 420 kts | 320° |
| 2026-05-07 05:50 | 38.45797 | 26.85229 | 34117 ft | 421 kts | 320° |
| 2026-05-07 05:50 | 38.50229 | 26.80324 | 34112 ft | 419 kts | 320° |
| 2026-05-07 05:51 | 38.54652 | 26.75416 | 34109 ft | 420 kts | 320° |
| 2026-05-07 05:51 | 38.59043 | 26.70533 | 34103 ft | 419 kts | 320° |
| 2026-05-07 05:52 | 38.63444 | 26.65629 | 34104 ft | 420 kts | 320° |
| 2026-05-07 05:52 | 38.67839 | 26.60724 | 34108 ft | 420 kts | 320° |
| 2026-05-07 05:53 | 38.72225 | 26.55822 | 34109 ft | 419 kts | 320° |
| 2026-05-07 05:53 | 38.76615 | 26.50909 | 34105 ft | 421 kts | 320° |
| 2026-05-07 05:54 | 38.81005 | 26.45985 | 34105 ft | 419 kts | 320° |
| 2026-05-07 05:54 | 38.85235 | 26.40874 | 34104 ft | 420 kts | 315° |
| 2026-05-07 05:55 | 38.89124 | 26.35294 | 34102 ft | 420 kts | 313° |
| 2026-05-07 05:55 | 38.92945 | 26.29642 | 34104 ft | 419 kts | 313° |
| 2026-05-07 05:56 | 38.96764 | 26.24041 | 34098 ft | 418 kts | 313° |
| 2026-05-07 05:56 | 39.00614 | 26.18433 | 34099 ft | 418 kts | 313° |
| 2026-05-07 05:57 | 39.04461 | 26.12841 | 34096 ft | 420 kts | 313° |
| 2026-05-07 05:57 | 39.08312 | 26.07242 | 34094 ft | 418 kts | 313° |
| 2026-05-07 05:58 | 39.12151 | 26.01647 | 34093 ft | 417 kts | 313° |
| 2026-05-07 05:58 | 39.15988 | 25.96047 | 34090 ft | 418 kts | 313° |
| 2026-05-07 05:59 | 39.19829 | 25.90433 | 34093 ft | 418 kts | 313° |
| 2026-05-07 05:59 | 39.23672 | 25.84810 | 34085 ft | 418 kts | 313° |
| 2026-05-07 06:00 | 39.27498 | 25.79196 | 34085 ft | 417 kts | 313° |
| 2026-05-07 06:00 | 39.31327 | 25.73572 | 34083 ft | 418 kts | 313° |
| 2026-05-07 06:01 | 39.35163 | 25.67923 | 34085 ft | 420 kts | 312° |
| 2026-05-07 06:01 | 39.39007 | 25.62252 | 34084 ft | 421 kts | 312° |
| 2026-05-07 06:02 | 39.42845 | 25.56583 | 34084 ft | 419 kts | 312° |
| 2026-05-07 06:02 | 39.46687 | 25.50895 | 34087 ft | 422 kts | 312° |
| 2026-05-07 06:03 | 39.50525 | 25.45205 | 34094 ft | 420 kts | 312° |
| 2026-05-07 06:03 | 39.54356 | 25.39515 | 34096 ft | 420 kts | 311° |
| 2026-05-07 06:04 | 39.58182 | 25.33821 | 34095 ft | 422 kts | 311° |
| 2026-05-07 06:04 | 39.62021 | 25.28097 | 34097 ft | 422 kts | 311° |
| 2026-05-07 06:05 | 39.65853 | 25.22373 | 34092 ft | 422 kts | 311° |
| 2026-05-07 06:05 | 39.69690 | 25.16631 | 34092 ft | 423 kts | 310° |
| 2026-05-07 06:06 | 39.73520 | 25.10888 | 34095 ft | 423 kts | 310° |
| 2026-05-07 06:06 | 39.77356 | 25.05126 | 34090 ft | 423 kts | 310° |
| 2026-05-07 06:07 | 39.81187 | 24.99358 | 34091 ft | 423 kts | 310° |
| 2026-05-07 06:07 | 39.85022 | 24.93577 | 34090 ft | 423 kts | 310° |
| 2026-05-07 06:08 | 39.88857 | 24.87785 | 34088 ft | 424 kts | 310° |
| 2026-05-07 06:08 | 39.92689 | 24.81987 | 34088 ft | 423 kts | 310° |
| 2026-05-07 06:09 | 39.96524 | 24.76174 | 34089 ft | 425 kts | 310° |
| 2026-05-07 06:09 | 40.00360 | 24.70348 | 34087 ft | 425 kts | 310° |
| 2026-05-07 06:10 | 40.04196 | 24.64512 | 34082 ft | 426 kts | 310° |
| 2026-05-07 06:10 | 40.08034 | 24.58661 | 34082 ft | 425 kts | 310° |
| 2026-05-07 06:11 | 40.11859 | 24.52817 | 34081 ft | 425 kts | 310° |
| 2026-05-07 06:11 | 40.15689 | 24.46955 | 34080 ft | 426 kts | 310° |
| 2026-05-07 06:12 | 40.19521 | 24.41079 | 34082 ft | 426 kts | 310° |
| 2026-05-07 06:12 | 40.23354 | 24.35191 | 34086 ft | 427 kts | 309° |
| 2026-05-07 06:13 | 40.27187 | 24.29291 | 34089 ft | 427 kts | 309° |
| 2026-05-07 06:13 | 40.31025 | 24.23372 | 34087 ft | 427 kts | 309° |
| 2026-05-07 06:14 | 40.34857 | 24.17450 | 34085 ft | 427 kts | 309° |
| 2026-05-07 06:14 | 40.38676 | 24.11538 | 34082 ft | 427 kts | 309° |
| 2026-05-07 06:15 | 40.42505 | 24.05600 | 34080 ft | 429 kts | 309° |
| 2026-05-07 06:15 | 40.46342 | 23.99637 | 34078 ft | 429 kts | 309° |
| 2026-05-07 06:16 | 40.50173 | 23.93670 | 34084 ft | 429 kts | 309° |
| 2026-05-07 06:16 | 40.54005 | 23.87692 | 34087 ft | 429 kts | 308° |
| 2026-05-07 06:17 | 40.57835 | 23.81707 | 34088 ft | 428 kts | 308° |
| 2026-05-07 06:17 | 40.61666 | 23.75708 | 34094 ft | 431 kts | 308° |
| 2026-05-07 06:18 | 40.65502 | 23.69689 | 34093 ft | 430 kts | 308° |
| 2026-05-07 06:18 | 40.69336 | 23.63660 | 34096 ft | 431 kts | 308° |
| 2026-05-07 06:19 | 40.73174 | 23.57615 | 34097 ft | 431 kts | 308° |
| 2026-05-07 06:19 | 40.77008 | 23.51563 | 34103 ft | 432 kts | 308° |
| 2026-05-07 06:20 | 40.80840 | 23.45504 | 34106 ft | 433 kts | 308° |
| 2026-05-07 06:20 | 40.84687 | 23.39409 | 34103 ft | 432 kts | 308° |
| 2026-05-07 06:21 | 40.88522 | 23.33320 | 34106 ft | 433 kts | 307° |
| 2026-05-07 06:21 | 40.92359 | 23.27212 | 34111 ft | 435 kts | 307° |
| 2026-05-07 06:22 | 40.96213 | 23.21066 | 34110 ft | 436 kts | 307° |
| 2026-05-07 06:22 | 41.01993 | 23.11830 | 34110 ft | 435 kts | 307° |
| 2026-05-07 06:23 | 41.05843 | 23.05658 | 34101 ft | 437 kts | 307° |
| 2026-05-07 06:23 | 41.09684 | 22.99494 | 34103 ft | 435 kts | 307° |
| 2026-05-07 06:24 | 41.13552 | 22.93362 | 34097 ft | 436 kts | 307° |
| 2026-05-07 06:24 | 41.17450 | 22.87267 | 34098 ft | 434 kts | 307° |
| 2026-05-07 06:25 | 41.21323 | 22.81120 | 34099 ft | 434 kts | 304° |
| 2026-05-07 06:25 | 41.24266 | 22.74251 | 34102 ft | 429 kts | 287° |
| 2026-05-07 06:26 | 41.25471 | 22.66576 | 34105 ft | 425 kts | 276° |
| 2026-05-07 06:26 | 41.26077 | 22.58793 | 34104 ft | 426 kts | 274° |
| 2026-05-07 06:27 | 41.26609 | 22.51009 | 34105 ft | 423 kts | 274° |
| 2026-05-07 06:27 | 41.27141 | 22.43251 | 34108 ft | 423 kts | 274° |
| 2026-05-07 06:28 | 41.27683 | 22.35491 | 34111 ft | 424 kts | 274° |
| 2026-05-07 06:28 | 41.28228 | 22.27699 | 34119 ft | 424 kts | 273° |
| 2026-05-07 06:29 | 41.28774 | 22.19908 | 34123 ft | 425 kts | 273° |
| 2026-05-07 06:29 | 41.29316 | 22.12122 | 34121 ft | 424 kts | 273° |
| 2026-05-07 06:30 | 41.29856 | 22.04279 | 34115 ft | 425 kts | 273° |
| 2026-05-07 06:30 | 41.30386 | 21.96486 | 34116 ft | 425 kts | 273° |
| 2026-05-07 06:31 | 41.30910 | 21.88682 | 34120 ft | 424 kts | 273° |
| 2026-05-07 06:31 | 41.31432 | 21.80889 | 34126 ft | 422 kts | 272° |
| 2026-05-07 06:32 | 41.31947 | 21.73112 | 34132 ft | 423 kts | 272° |
| 2026-05-07 06:32 | 41.32455 | 21.65323 | 34133 ft | 425 kts | 272° |
| 2026-05-07 06:33 | 41.32964 | 21.57508 | 34131 ft | 425 kts | 272° |
| 2026-05-07 06:33 | 41.33466 | 21.49666 | 34137 ft | 426 kts | 272° |
| 2026-05-07 06:34 | 41.33912 | 21.41830 | 34137 ft | 427 kts | 270° |
| 2026-05-07 06:34 | 41.33949 | 21.33958 | 34142 ft | 425 kts | 266° |
| 2026-05-07 06:35 | 41.33845 | 21.26122 | 34137 ft | 423 kts | 266° |
| 2026-05-07 06:35 | 41.33757 | 21.18320 | 34142 ft | 425 kts | 266° |
| 2026-05-07 06:36 | 41.33693 | 21.10475 | 34144 ft | 425 kts | 266° |
| 2026-05-07 06:36 | 41.33643 | 21.02645 | 34156 ft | 425 kts | 266° |
| 2026-05-07 06:37 | 41.33600 | 20.94802 | 34161 ft | 426 kts | 267° |
| 2026-05-07 06:37 | 41.33559 | 20.86954 | 34153 ft | 426 kts | 266° |
| 2026-05-07 06:38 | 41.33510 | 20.79112 | 34146 ft | 425 kts | 266° |
| 2026-05-07 06:38 | 41.33463 | 20.71266 | 34143 ft | 426 kts | 266° |
| 2026-05-07 06:39 | 41.33434 | 20.67323 | 33982 ft | 429 kts | 266° |
| 2026-05-07 06:39 | 41.33400 | 20.63367 | 33706 ft | 428 kts | 266° |
| 2026-05-07 06:39 | 41.33368 | 20.59430 | 33426 ft | 426 kts | 266° |
| 2026-05-07 06:39 | 41.33331 | 20.55487 | 33152 ft | 428 kts | 266° |
| 2026-05-07 06:40 | 41.33301 | 20.51540 | 32877 ft | 430 kts | 266° |
| 2026-05-07 06:40 | 41.33399 | 20.47568 | 32604 ft | 434 kts | 270° |
| 2026-05-07 06:40 | 41.33670 | 20.43560 | 32326 ft | 437 kts | 273° |
| 2026-05-07 06:40 | 41.34035 | 20.39547 | 32047 ft | 438 kts | 275° |
| 2026-05-07 06:41 | 41.34438 | 20.35547 | 31770 ft | 438 kts | 275° |
| 2026-05-07 06:41 | 41.34856 | 20.31526 | 31500 ft | 441 kts | 274° |
| 2026-05-07 06:41 | 41.35223 | 20.27985 | 31260 ft | 443 kts | 274° |